Historique des mesures à Cassis (13260), France
Quotidien Résumé Juillet 8, 2018 Unités:  Métrique    US   Métrique/US
« Précédent (Jour)
Suivant (Jour) »
Quotidien Hebdomadaire Mensuel Annuel Période au choix
  Maximum: Minimum: Moyenne:
Température: TemperatureC °C 22.4 °C 25.6 °C
Point de rosée: DewpointC °C 15.5 °C 17.3 °C
Humidité: Humidity % 48 % 57 %
Vitesse du vent: 0 km/h 0 km/h 3.5 km/h
Rafales: 0 km/h - -
Vent:- - SE
Pression: PressurehPa hPa 1010.2 hPa -
Précipitations: 0.0 mm    
Historical Graphs
 
 
Mesures pour : Juillet 8, 2018
Heure Temperature Point de rosée Pression Vent Vitesse du vent Rafales Humidité Pluie (par heure) Conditions
TemperatureC °C DewpointC °C PressurehPa hPa Calm     Humidity % HourlyPrecipMM mm SoftwareType W/m2
00:10 24.1 °C 17.3 °C 1011.8 hPa Calm     66 % 0.0 mm open2300-1.11 W/m2
01:10 23.6 °C 16.9 °C 1011.7 hPa Calm   2.3 km/h 66 % 0.0 mm open2300-1.11 W/m2
02:10 23.3 °C 16.3 °C 1011.6 hPa Calm   4.2 km/h 65 % 0.0 mm open2300-1.11 W/m2
03:10 23.3 °C 16.3 °C 1011.6 hPa Calm     65 % 0.0 mm open2300-1.11 W/m2
04:10 22.9 °C 15.9 °C 1011.6 hPa North 1.8 km/h 1.8 km/h 65 % 0.0 mm open2300-1.11 W/m2
05:10 22.5 °C 15.8 °C 1011.3 hPa NE 4.2 km/h 5.6 km/h 66 % 0.0 mm open2300-1.11 W/m2
06:10 22.4 °C 15.5 °C 1011.6 hPa Calm   14 km/h 65 % 0.0 mm open2300-1.11 W/m2
07:10 22.8 °C 15.6 °C 1011.8 hPa Calm   4.2 km/h 64 % 0.0 mm open2300-1.11 W/m2
08:10 24.9 °C 16.8 °C 1012.3 hPa Calm   2.3 km/h 61 % 0.0 mm open2300-1.11 W/m2
09:10 24.8 °C 16.8 °C 1012.4 hPa SE 3.4 km/h 4.7 km/h 61 % 0.0 mm open2300-1.11 W/m2
10:10 25.8 °C 17.5 °C 1012.7 hPa SE 6.4 km/h 6.4 km/h 60 % 0.0 mm open2300-1.11 W/m2
11:10 29.8 °C 19.5 °C 1012.6 hPa SSE 8.9 km/h 9.8 km/h 54 % 0.0 mm open2300-1.11 W/m2
12:10 31.3 °C 20.6 °C 1012.7 hPa SE 8 km/h 8 km/h 53 % 0.0 mm open2300-1.11 W/m2
13:10 32.1 °C 21.0 °C 1012.5 hPa SSE 8 km/h 11.6 km/h 52 % 0.0 mm open2300-1.11 W/m2
14:10 31.9 °C 20.5 °C 1012.4 hPa ESE 6.4 km/h 6.4 km/h 51 % 0.0 mm open2300-1.11 W/m2
15:10 31.8 °C 19.4 °C 1011.9 hPa SE 5.6 km/h 6.9 km/h 48 % 0.0 mm open2300-1.11 W/m2
16:10 31.1 °C 19.1 °C 1011.7 hPa South 6.4 km/h 7.6 km/h 49 % 0.0 mm open2300-1.11 W/m2
17:10 30.0 °C 19.4 °C 1011.1 hPa South 9.3 km/h 9.3 km/h 53 % 0.0 mm open2300-1.11 W/m2
18:10 29.2 °C 19.5 °C 1010.5 hPa SSE 11.6 km/h 11.6 km/h 56 % 0.0 mm open2300-1.11 W/m2
19:10 28.1 °C 19.0 °C 1010.4 hPa SE 4.7 km/h 10.3 km/h 58 % 0.0 mm open2300-1.11 W/m2
20:10 27.6 °C 18.8 °C 1010.2 hPa Calm     59 % 0.0 mm open2300-1.11 W/m2
21:10 26.7 °C 18.6 °C 1010.2 hPa Calm     61 % 0.0 mm open2300-1.11 W/m2
22:10 25.6 °C 18.3 °C 1010.8 hPa Calm     64 % 0.0 mm open2300-1.11 W/m2
23:10 24.9 °C 17.8 °C 1010.6 hPa ENE 2.3 km/h 2.3 km/h 65 % 0.0 mm open2300-1.11 W/m2
Observations météo à CASSIS
WU-History script by Weather Underground - 1 mb